Trumann, AR (72472)

7:02 AM CST on March 01, 2015 (GMT -0600)
RAWS POINSETT AR US | Change Station
CLOSE
Current Station
Personal Weather Station
Location: Harrisburg, AR
Elevation: 389 ft
Nearby Weather Stations
Active Advisory: Winter Weather Advisory Active Notice: Record Report

Elev 389 ft 35.57 °N, 90.71 °W | Updated 52 minutes ago

Snow
Snow
32 °F
Feels Like 28 °F
N
4
Wind Variable Wind from NW
Gusts 9.0 mph

Today
High -- | Low -- °F
--% Chance of Precip.
Yesterday
High -- | Low -- °F
Precip. -- in
6:32 AM 5:57 PM
Waxing Gibbous, 85% visible
Pressure 30.39 in
Visibility 6.0 miles
Clouds Overcast 5000 ft
Windchill 28 °F
Dew Point 29 °F
Humidity 87%
Rainfall 0.00 in
Snow Depth Not available.
UV 0 out of 12
Pollen 4.50 out of 12
Air Quality Not available.
Flu Activity Not available.
METAR KJBR 011253Z AUTO 00000KT 6SM UP BR OVC050 00/M01 A3038 RMK AO2 UPB01 SLP291 P0003 T00001006

More Conditions Fewer Conditions

Pressure 30.39 in
Visibility 6.0 miles
Clouds Overcast 5000 ft
Windchill 28 °F
Dew Point 29 °F
Humidity 87%
Rainfall 0.00 in
Snow Depth Not available.
UV 0 out of 12
Pollen 4.50 out of 12
Air Quality Not available.
Flu Activity Not available.
METAR KJBR 011253Z AUTO 00000KT 6SM UP BR OVC050 00/M01 A3038 RMK AO2 UPB01 SLP291 P0003 T00001006

More Conditions Fewer Conditions

10-Day Weather Forecast

Almanac

Astronomy

Mar. 01, 2015 Rise Set
Actual Time
Civil Twilight
Nautical Twilight
Astronomical Twilight
Moon
Length of Visible Light
Length of Day
Tomorrow will be .
, % of the Moon is Illuminated

Today's Extremes

State Highs State Lows

Community

WunderPhotos

Upload Photos

1,801,373 photos uploaded!

WunderBlogs® & News

Nearby

Air Quality

  Air Quality AQ Index Pollutant
Not available.

Snow Depth

Station Depth Elevation

Earthquake Activity

City Distance Mag. Time & Date
Minimum magnitude displayed is 2.5.

Coastal Water Temperatures

Place Temperature

Nearby Weather Stations

Winter Weather Advisory
Statement as of 3:29 AM CST on March 01, 2015

... Winter Weather Advisory now in effect until 9 am CST this
morning...

* ice accumulations... less than one tenth of an inch.

* Timing... through 9 am CST this morning.

* Impacts... freezing rain may make travel hazardous across the
advisory area.

Precautionary/preparedness actions...

A Winter Weather Advisory means that freezing rain will cause
travel difficulties. Be prepared for slippery roads and use
extreme caution while driving.